Time;durP1;ratioP1;P1;durP2;ratioP2;P2;SDS_P1;SDS_P2;PMS_P1;PMS_P2;Temp;Humidity;BMP_temperature;BMP_pressure;BME280_temperature;BME280_humidity;BME280_pressure;Samples;Min_cycle;Max_cycle;Signal;HPM_P1;HPM_P2
2023/07/28 00:00:43;;;;;;;7.95;3.67;;;;;;;18.50;100.00;99182.59;6092872;23;20453;-81
2023/07/28 00:03:10;;;;;;;6.30;3.72;;;;;;;18.50;100.00;99185.28;6115476;23;20032;-81
2023/07/28 00:05:36;;;;;;;8.45;4.28;;;;;;;18.50;100.00;99177.22;6069379;23;20060;-81
2023/07/28 00:08:04;;;;;;;7.97;4.03;;;;;;;18.47;100.00;99173.06;6142487;23;20076;-80
2023/07/28 00:10:31;;;;;;;9.18;4.05;;;;;;;18.47;100.00;99173.06;6068715;23;20084;-81
2023/07/28 00:12:59;;;;;;;9.30;3.95;;;;;;;18.47;100.00;99166.84;6115406;23;20041;-80
2023/07/28 00:15:25;;;;;;;7.25;2.90;;;;;;;18.46;100.00;99174.09;6117643;23;20048;-81
2023/07/28 00:17:52;;;;;;;7.75;3.33;;;;;;;18.46;100.00;99173.25;6116492;23;20450;-81
2023/07/28 00:20:19;;;;;;;4.85;3.58;;;;;;;18.47;100.00;99169.53;6143145;23;20025;-81
2023/07/28 00:22:46;;;;;;;5.03;3.00;;;;;;;18.47;100.00;99172.22;6116034;23;20523;-81
2023/07/28 00:25:12;;;;;;;7.57;3.35;;;;;;;18.47;100.00;99166.84;6117118;23;20509;-82
2023/07/28 00:27:39;;;;;;;13.02;3.47;;;;;;;18.47;100.00;99164.16;6069205;23;20080;-81
2023/07/28 00:30:06;;;;;;;6.32;3.45;;;;;;;18.47;100.00;99166.84;6116084;23;20031;-81
2023/07/28 00:32:33;;;;;;;6.38;3.22;;;;;;;18.47;100.00;99170.38;6116099;23;20060;-81
2023/07/28 00:35:00;;;;;;;4.88;2.95;;;;;;;18.49;100.00;99167.47;6117087;23;20025;-80
2023/07/28 00:37:27;;;;;;;4.03;3.63;;;;;;;18.50;100.00;99163.78;6067905;23;20080;-81
2023/07/28 00:39:54;;;;;;;7.45;3.05;;;;;;;18.51;100.00;99166.25;6116590;23;20088;-81
2023/07/28 00:42:20;;;;;;;6.60;3.30;;;;;;;18.51;100.00;99174.31;6117564;23;20464;-81
2023/07/28 00:44:47;;;;;;;4.72;3.10;;;;;;;18.50;100.00;99167.28;6115450;23;20671;-80
2023/07/28 00:47:15;;;;;;;5.28;3.08;;;;;;;18.51;100.00;99154.66;6092962;23;20774;-84
2023/07/28 00:49:42;;;;;;;4.90;3.00;;;;;;;18.51;100.00;99152.78;6069314;23;20025;-81
2023/07/28 00:52:08;;;;;;;7.18;3.38;;;;;;;18.51;100.00;99149.28;6092685;23;20018;-81
2023/07/28 00:54:36;;;;;;;5.47;3.30;;;;;;;18.52;100.00;99150.94;6092334;23;20024;-80
2023/07/28 00:57:03;;;;;;;5.53;3.17;;;;;;;18.50;100.00;99145.78;6092238;23;20017;-80
2023/07/28 00:59:30;;;;;;;6.50;3.10;;;;;;;18.50;100.00;99144.97;6093324;23;20053;-80
2023/07/28 01:01:57;;;;;;;7.93;3.30;;;;;;;18.49;100.00;99152.16;6068677;23;20036;-82
2023/07/28 01:04:24;;;;;;;7.47;3.05;;;;;;;18.48;100.00;99142.47;6067385;23;20426;-81
2023/07/28 01:07:08;;;;;;;4.45;3.53;;;;;;;18.44;100.00;99154.63;6095016;23;20438;-81
2023/07/28 01:09:58;;;;;;;5.40;3.28;;;;;;;18.47;100.00;99156.09;6144215;23;20341;-80
2023/07/28 01:12:25;;;;;;;5.55;3.05;;;;;;;18.47;100.00;99148.88;6098372;23;20052;-81
2023/07/28 01:14:52;;;;;;;5.95;3.13;;;;;;;18.49;100.00;99159.41;6117599;23;20029;-81
2023/07/28 01:17:19;;;;;;;7.40;3.53;;;;;;;18.49;100.00;99160.22;6094868;23;20021;-82
2023/07/28 01:19:46;;;;;;;5.88;2.85;;;;;;;18.50;100.00;99153.84;6089760;23;20030;-80
2023/07/28 01:22:41;;;;;;;6.35;3.35;;;;;;;18.43;100.00;99155.69;6117456;23;20029;-81
2023/07/28 01:25:50;;;;;;;7.30;3.63;;;;;;;18.40;100.00;99150.72;6117153;23;20025;-81
2023/07/28 01:28:20;;;;;;;7.82;2.90;;;;;;;18.46;100.00;99157.97;6025071;23;20025;-81
2023/07/28 01:30:47;;;;;;;6.28;3.47;;;;;;;18.48;100.00;99160.47;6144734;23;20045;-81
2023/07/28 01:33:14;;;;;;;7.68;3.53;;;;;;;18.48;100.00;99160.47;6069689;23;20092;-80
2023/07/28 01:35:41;;;;;;;7.70;3.30;;;;;;;18.48;100.00;99157.78;6094761;23;20394;-81
2023/07/28 01:38:08;;;;;;;8.35;3.97;;;;;;;18.49;100.00;99165.59;6118633;23;20059;-81
2023/07/28 01:40:34;;;;;;;6.85;3.67;;;;;;;18.48;100.00;99149.69;6118654;23;20053;-81
2023/07/28 01:43:01;;;;;;;7.80;3.10;;;;;;;18.50;100.00;99150.34;6093907;23;20073;-80
2023/07/28 01:45:28;;;;;;;4.93;2.92;;;;;;;18.48;100.00;99155.91;6095095;23;20411;-81
2023/07/28 01:47:55;;;;;;;7.10;3.50;;;;;;;18.48;100.00;99158.59;6144030;23;20029;-80
2023/07/28 01:50:22;;;;;;;6.63;3.85;;;;;;;18.49;100.00;99156.72;6094652;23;20053;-81
2023/07/28 01:52:48;;;;;;;5.10;3.45;;;;;;;18.50;100.00;99159.22;6093220;23;20025;-81
2023/07/28 01:55:15;;;;;;;5.50;3.47;;;;;;;18.49;100.00;99154.84;6092268;23;20029;-81
2023/07/28 01:57:51;;;;;;;6.82;3.80;;;;;;;18.45;100.00;99150.94;6095319;23;20028;-81
2023/07/28 02:00:18;;;;;;;7.68;3.60;;;;;;;18.48;100.00;99147.84;6093176;23;20088;-81
2023/07/28 02:02:47;;;;;;;8.43;3.75;;;;;;;18.51;100.00;99151.97;6092926;23;20029;-80
2023/07/28 02:05:14;;;;;;;5.47;3.15;;;;;;;18.50;100.00;99150.34;6116722;23;20090;-81
2023/07/28 02:07:41;;;;;;;5.40;3.67;;;;;;;18.52;100.00;99156.31;6116319;23;20026;-80
2023/07/28 02:10:10;;;;;;;6.68;3.25;;;;;;;18.51;100.00;99146.59;6092894;23;20025;-81
2023/07/28 02:12:37;;;;;;;4.35;3.30;;;;;;;18.51;100.00;99144.72;6117451;23;20032;-81
2023/07/28 02:15:07;;;;;;;5.18;3.25;;;;;;;18.51;100.00;99136.66;6068649;23;20041;-81
2023/07/28 02:17:34;;;;;;;5.45;3.20;;;;;;;18.54;100.00;99138.13;6066469;23;20121;-81
2023/07/28 02:20:03;;;;;;;4.13;3.30;;;;;;;18.53;100.00;99139.16;6093016;23;20381;-81
2023/07/28 02:22:30;;;;;;;6.35;3.80;;;;;;;18.53;100.00;99141.84;6117159;23;20029;-81
2023/07/28 02:25:01;;;;;;;5.07;3.40;;;;;;;18.51;100.00;99142.03;6115213;23;20092;-80
2023/07/28 02:27:30;;;;;;;6.35;3.13;;;;;;;18.51;100.00;99143.91;6069791;23;20029;-81
2023/07/28 02:29:57;;;;;;;5.22;3.65;;;;;;;18.51;100.00;99149.28;6116843;23;20022;-81
2023/07/28 02:32:23;;;;;;;5.85;3.60;;;;;;;18.51;100.00;99143.91;6116138;23;20017;-81
2023/07/28 02:34:50;;;;;;;6.88;3.58;;;;;;;18.50;100.00;99143.09;6092374;23;20021;-81
2023/07/28 02:37:17;;;;;;;4.07;3.13;;;;;;;18.50;100.00;99139.56;6116553;23;20021;-81
2023/07/28 02:39:44;;;;;;;6.30;3.53;;;;;;;18.51;100.00;99135.84;6143097;23;20088;-80
2023/07/28 02:42:11;;;;;;;5.47;3.55;;;;;;;18.49;100.00;99144.09;6091357;23;20029;-80
2023/07/28 02:44:38;;;;;;;14.25;4.32;;;;;;;18.51;100.00;99155.50;6067741;23;20029;-80
2023/07/28 02:47:05;;;;;;;5.40;3.50;;;;;;;18.52;100.00;99142.88;6117456;23;20032;-80
2023/07/28 02:49:34;;;;;;;6.85;3.70;;;;;;;18.53;100.00;99163.38;6068218;23;20635;-82
2023/07/28 02:52:02;;;;;;;8.75;3.78;;;;;;;18.52;100.00;99153.63;6092993;23;20028;-80
2023/07/28 02:54:29;;;;;;;4.10;3.33;;;;;;;18.53;100.00;99152.59;6115437;23;20025;-81
2023/07/28 02:56:56;;;;;;;6.57;3.33;;;;;;;18.55;100.00;99156.75;6092585;23;20033;-81
2023/07/28 02:59:23;;;;;;;4.15;3.38;;;;;;;18.52;100.00;99150.94;6117207;23;20021;-80
2023/07/28 03:01:52;;;;;;;5.22;3.47;;;;;;;18.54;100.00;99163.13;6048878;23;1048187;-81
2023/07/28 03:04:20;;;;;;;7.03;3.58;;;;;;;18.55;100.00;99167.50;6093810;23;20029;-81
2023/07/28 03:07:13;;;;;;;5.20;4.00;;;;;;;18.52;100.00;99161.69;6097558;23;20029;-80
2023/07/28 03:09:41;;;;;;;5.95;3.45;;;;;;;18.54;100.00;99170.38;6093870;23;20711;-81
2023/07/28 03:12:08;;;;;;;4.75;3.40;;;;;;;18.54;100.00;99167.69;6093678;23;20450;-80
2023/07/28 03:14:36;;;;;;;4.88;3.75;;;;;;;18.53;100.00;99166.06;6093452;23;20488;-80
2023/07/28 03:17:03;;;;;;;6.07;3.45;;;;;;;18.53;100.00;99166.88;6117304;23;20029;-80
2023/07/28 03:19:30;;;;;;;6.95;3.60;;;;;;;18.53;100.00;99166.88;6116935;23;20477;-81
2023/07/28 03:21:57;;;;;;;5.28;3.53;;;;;;;18.54;100.00;99167.69;6118490;23;20084;-81
2023/07/28 03:24:24;;;;;;;6.28;3.42;;;;;;;18.53;100.00;99161.50;6115910;23;20029;-80
2023/07/28 03:26:50;;;;;;;7.15;3.53;;;;;;;18.54;100.00;99168.50;6069653;23;20033;-83
2023/07/28 03:29:18;;;;;;;8.98;3.85;;;;;;;18.54;100.00;99175.75;6087630;23;20022;-81
2023/07/28 03:31:45;;;;;;;5.10;2.63;;;;;;;18.52;100.00;99165.22;6068521;23;20516;-80
2023/07/28 03:34:12;;;;;;;5.53;3.13;;;;;;;18.54;100.00;99178.44;6069241;23;20029;-81
2023/07/28 03:36:40;;;;;;;12.43;3.75;;;;;;;18.51;100.00;99174.31;6070731;23;20028;-80
2023/07/28 03:39:07;;;;;;;7.32;3.40;;;;;;;18.52;100.00;99175.13;6117407;23;20444;-80
2023/07/28 03:41:34;;;;;;;8.18;3.15;;;;;;;18.51;100.00;99178.88;6095328;23;20028;-87
2023/07/28 03:44:00;;;;;;;7.28;3.70;;;;;;;18.52;100.00;99172.44;6095541;23;20069;-87
2023/07/28 03:46:27;;;;;;;5.00;3.35;;;;;;;18.53;100.00;99166.06;6095654;23;20026;-88
2023/07/28 03:48:58;;;;;;;8.95;3.22;;;;;;;18.52;100.00;99164.38;6120375;23;20793;-88
2023/07/28 03:51:25;;;;;;;6.28;3.60;;;;;;;18.51;100.00;99165.41;6096043;23;20056;-88
2023/07/28 03:53:52;;;;;;;7.20;3.50;;;;;;;18.51;100.00;99166.25;6095952;23;20025;-89
2023/07/28 03:56:19;;;;;;;6.20;3.55;;;;;;;18.52;100.00;99165.22;6095433;23;20076;-87
2023/07/28 03:58:46;;;;;;;5.25;3.25;;;;;;;18.52;100.00;99175.13;6095418;23;20088;-87
2023/07/28 04:01:13;;;;;;;4.22;3.10;;;;;;;18.51;100.00;99177.00;6094814;23;20022;-89
2023/07/28 04:03:41;;;;;;;4.72;3.50;;;;;;;18.50;100.00;99169.97;6094316;23;20446;-88
2023/07/28 04:06:14;;;;;;;6.43;3.33;;;;;;;18.49;100.00;99168.31;6094152;23;20409;-89
2023/07/28 04:08:41;;;;;;;5.70;3.25;;;;;;;18.51;100.00;99181.56;6071072;23;20025;-89
2023/07/28 04:11:08;;;;;;;7.15;3.60;;;;;;;18.53;100.00;99185.69;6069948;23;20029;-91
2023/07/28 04:13:35;;;;;;;5.90;4.53;;;;;;;18.52;100.00;99188.56;6063808;23;20105;-88
2023/07/28 04:16:01;;;;;;;5.43;3.50;;;;;;;18.51;100.00;99174.31;6066716;23;20442;-91
2023/07/28 04:18:29;;;;;;;6.38;3.67;;;;;;;18.53;100.00;99172.25;6066986;23;20031;-91
2023/07/28 04:20:55;;;;;;;10.65;4.40;;;;;;;18.53;100.00;99177.63;6095939;23;20323;-92
2023/07/28 04:23:22;;;;;;;9.00;3.92;;;;;;;18.51;100.00;99178.88;6120777;23;20072;-93
2023/07/28 04:25:50;;;;;;;7.07;4.10;;;;;;;18.51;100.00;99184.25;6121543;23;20385;-93
2023/07/28 04:28:17;;;;;;;6.18;3.88;;;;;;;18.51;100.00;99181.56;6073505;23;20076;-94
2023/07/28 04:30:44;;;;;;;5.88;3.80;;;;;;;18.49;100.00;99187.13;6049509;23;20709;-93
2023/07/28 04:33:25;;;;;;;5.57;3.75;;;;;;;18.50;100.00;99196.84;6074522;23;20021;-87
2023/07/28 04:35:52;;;;;;;9.60;3.78;;;;;;;18.51;100.00;99195.81;6071089;23;20109;-88
2023/07/28 04:38:29;;;;;;;9.50;3.95;;;;;;;18.52;100.00;99188.56;6075655;23;20033;-87
2023/07/28 04:40:58;;;;;;;8.18;4.47;;;;;;;18.50;100.00;99190.66;6095901;23;20026;-88
2023/07/28 04:43:42;;;;;;;5.57;3.70;;;;;;;18.48;100.00;99181.97;6097834;23;20517;-86
2023/07/28 04:46:09;;;;;;;5.53;4.13;;;;;;;18.52;100.00;99188.56;6073527;23;20405;-88
2023/07/28 04:48:36;;;;;;;7.55;4.00;;;;;;;18.51;100.00;99190.44;6073062;23;20740;-88
2023/07/28 04:51:10;;;;;;;6.15;3.45;;;;;;;18.53;100.00;99193.75;6100838;23;20029;-93
2023/07/28 04:54:09;;;;;;;6.18;3.55;;;;;;;18.54;100.00;99199.97;6105339;23;20072;-93
2023/07/28 04:56:36;;;;;;;6.97;3.95;;;;;;;18.52;100.00;99196.63;6050119;23;20434;-93
2023/07/28 04:59:04;;;;;;;4.93;3.67;;;;;;;18.54;100.00;99200.78;6052099;23;20077;-94
2023/07/28 05:01:31;;;;;;;12.27;4.72;;;;;;;18.55;100.00;99191.69;6050409;23;20025;-94
2023/07/28 05:03:58;;;;;;;5.95;3.75;;;;;;;18.49;100.00;99184.44;6072984;23;20051;-93
2023/07/28 05:06:27;;;;;;;7.15;4.47;;;;;;;18.55;100.00;99202.47;6075426;23;20017;-91
2023/07/28 05:08:55;;;;;;;7.13;3.65;;;;;;;18.56;100.00;99204.09;6072153;23;20084;-93
2023/07/28 05:11:33;;;;;;;5.35;3.80;;;;;;;18.58;100.00;99209.28;6055036;23;20100;-92
2023/07/28 05:14:01;;;;;;;7.47;4.32;;;;;;;18.60;100.00;99216.13;6097332;23;20100;-93
2023/07/28 05:16:29;;;;;;;5.97;4.22;;;;;;;18.58;100.00;99207.41;6097623;23;20282;-93
2023/07/28 05:19:08;;;;;;;;;;;;;;;18.44;100.00;99208.41;6100581;23;20040;-94
2023/07/28 05:21:50;;;;;;;6.35;4.30;;;;;;;18.57;100.00;99204.91;6103194;23;20284;-93
2023/07/28 05:24:21;;;;;;;5.68;4.22;;;;;;;18.60;100.00;99204.53;6123133;23;20018;-94
2023/07/28 05:26:48;;;;;;;8.20;4.22;;;;;;;18.62;100.00;99205.16;6123308;23;20025;-93
2023/07/28 05:29:15;;;;;;;6.82;4.10;;;;;;;18.64;100.00;99203.91;6100465;23;20027;-90
2023/07/28 05:31:43;;;;;;;4.50;3.72;;;;;;;18.65;100.00;99202.06;6073454;23;20079;-93
2023/07/28 05:34:20;;;;;;;5.00;3.20;;;;;;;18.68;100.00;99203.53;6052597;23;20025;-93
2023/07/28 05:36:46;;;;;;;6.97;3.47;;;;;;;18.70;100.00;99204.13;6096550;23;20018;-90
2023/07/28 05:39:14;;;;;;;4.85;4.22;;;;;;;18.72;100.00;99202.06;6096093;23;20113;-90
2023/07/28 05:41:43;;;;;;;6.72;3.75;;;;;;;18.72;100.00;99207.44;6096666;23;20026;-90
2023/07/28 05:44:12;;;;;;;5.63;3.15;;;;;;;18.74;100.00;99210.78;6072686;23;20036;-91
2023/07/28 05:46:39;;;;;;;6.68;3.35;;;;;;;18.73;100.00;99209.94;6097543;23;20029;-90
2023/07/28 05:49:07;;;;;;;6.15;3.47;;;;;;;18.76;100.00;99219.50;6096684;23;20052;-91
2023/07/28 05:51:34;;;;;;;5.25;3.33;;;;;;;18.77;100.00;99218.44;6097083;23;20318;-91
2023/07/28 05:54:02;;;;;;;8.32;3.80;;;;;;;18.78;100.00;99234.41;6072917;23;20096;-90
2023/07/28 05:56:29;;;;;;;8.07;3.13;;;;;;;18.77;100.00;99231.91;6097024;23;20041;-91
2023/07/28 05:59:06;;;;;;;6.65;3.33;;;;;;;18.77;100.00;99232.72;6072580;23;20029;-89
2023/07/28 06:01:33;;;;;;;3.72;2.65;;;;;;;18.79;100.00;99224.47;6008545;23;20073;-91
2023/07/28 06:04:36;;;;;;;4.78;2.67;;;;;;;18.78;100.00;99229.03;6098149;23;20022;-90
2023/07/28 06:07:10;;;;;;;3.13;2.78;;;;;;;18.79;100.00;99227.16;5977115;23;20495;-91
2023/07/28 06:09:37;;;;;;;2.88;2.40;;;;;;;18.79;100.00;99227.16;6067943;23;20029;-90
2023/07/28 06:12:05;;;;;;;7.22;2.00;;;;;;;18.80;100.00;99226.97;6073079;23;20087;-89
2023/07/28 06:14:32;;;;;;;2.38;1.73;;;;;;;18.81;100.00;99233.16;6073067;23;20021;-91
2023/07/28 06:16:59;;;;;;;3.55;1.88;;;;;;;18.80;100.00;99229.66;6096771;23;20026;-92
2023/07/28 06:19:29;;;;;;;3.38;2.35;;;;;;;18.80;100.00;99234.19;6049422;23;20076;-92
2023/07/28 06:21:56;;;;;;;3.75;2.20;;;;;;;18.80;100.00;99232.34;6096445;23;20335;-91
2023/07/28 06:24:23;;;;;;;4.78;2.20;;;;;;;18.81;100.00;99242.06;6048047;23;20468;-90
2023/07/28 06:26:50;;;;;;;3.92;2.13;;;;;;;18.79;100.00;99241.44;6071844;23;20017;-89
2023/07/28 06:29:17;;;;;;;3.47;2.13;;;;;;;18.79;100.00;99236.03;6071507;23;20017;-90
2023/07/28 06:31:44;;;;;;;3.40;1.95;;;;;;;18.83;100.00;99241.88;6096365;23;20101;-90
2023/07/28 06:34:11;;;;;;;2.78;1.90;;;;;;;18.82;100.00;99243.69;6071314;23;20021;-94
2023/07/28 06:36:38;;;;;;;5.30;2.53;;;;;;;18.82;100.00;99232.94;6073126;23;20021;-90
2023/07/28 06:39:05;;;;;;;3.05;1.98;;;;;;;18.85;100.00;99240.63;6070067;23;20353;-93
2023/07/28 06:41:32;;;;;;;2.20;1.88;;;;;;;18.86;100.00;99242.28;6094570;23;20033;-90
2023/07/28 06:44:00;;;;;;;2.38;1.95;;;;;;;18.91;100.00;99247.03;6093785;23;20025;-93
2023/07/28 06:46:28;;;;;;;5.40;2.35;;;;;;;18.92;100.00;99253.25;6096001;23;20492;-92
2023/07/28 06:48:56;;;;;;;2.92;2.25;;;;;;;18.93;100.00;99261.13;6096962;23;20100;-93
2023/07/28 06:51:22;;;;;;;3.97;2.25;;;;;;;18.93;100.00;99266.50;6072545;23;20482;-92
2023/07/28 06:53:50;;;;;;;3.05;2.10;;;;;;;18.95;100.00;99258.22;6096753;23;20017;-91
2023/07/28 06:56:17;;;;;;;6.13;3.00;;;;;;;18.94;100.00;99268.16;6096231;23;20089;-92
2023/07/28 06:58:44;;;;;;;3.55;3.00;;;;;;;18.91;100.00;99268.56;6119147;23;20095;-90
2023/07/28 07:01:22;;;;;;;3.38;3.00;;;;;;;18.90;100.00;99269.59;6118272;23;20025;-90
2023/07/28 07:03:49;;;;;;;2.95;2.65;;;;;;;18.88;100.00;99271.66;6071978;23;20022;-93
2023/07/28 07:06:16;;;;;;;4.25;2.58;;;;;;;18.87;100.00;99270.81;6072774;23;20026;-92
2023/07/28 07:08:43;;;;;;;5.22;2.40;;;;;;;18.88;100.00;99271.66;6049030;23;20024;-90
2023/07/28 07:11:11;;;;;;;2.40;2.20;;;;;;;18.90;100.00;99269.59;6072007;23;20021;-91
2023/07/28 07:13:38;;;;;;;2.85;2.55;;;;;;;18.90;100.00;99264.19;6074156;23;20029;-94
2023/07/28 07:16:06;;;;;;;2.80;2.53;;;;;;;18.92;100.00;99272.91;6073436;23;20018;-93
2023/07/28 07:18:33;;;;;;;4.20;3.22;;;;;;;18.93;100.00;99271.03;6048374;23;20025;-92
2023/07/28 07:21:03;;;;;;;5.38;3.90;;;;;;;18.96;100.00;99284.09;6071938;23;20021;-91
2023/07/28 07:23:30;;;;;;;4.10;2.90;;;;;;;19.00;100.00;99279.97;6072121;23;20021;-92
2023/07/28 07:25:56;;;;;;;3.97;3.58;;;;;;;19.02;100.00;99285.97;6072766;23;20021;-91
2023/07/28 07:28:23;;;;;;;4.82;3.78;;;;;;;19.03;100.00;99283.09;6096145;23;20084;-91
2023/07/28 07:30:50;;;;;;;4.82;3.70;;;;;;;19.05;100.00;99296.31;6096934;23;20074;-90
2023/07/28 07:33:17;;;;;;;6.30;3.42;;;;;;;19.03;100.00;99285.78;6121527;23;20021;-92
2023/07/28 07:35:44;;;;;;;4.45;3.63;;;;;;;19.03;100.00;99296.53;6072488;23;20025;-91
2023/07/28 07:38:11;;;;;;;4.40;4.00;;;;;;;19.06;100.00;99308.75;6096167;23;20505;-92
2023/07/28 07:40:37;;;;;;;5.55;3.80;;;;;;;19.06;100.00;99306.06;6072860;23;20021;-93
2023/07/28 07:43:05;;;;;;;4.80;3.63;;;;;;;19.08;100.00;99298.59;6072950;23;20032;-92
2023/07/28 07:45:32;;;;;;;9.60;4.55;;;;;;;19.11;100.00;99298.22;6095026;23;20047;-92
2023/07/28 07:47:59;;;;;;;4.22;3.85;;;;;;;19.15;100.00;99310.22;6072909;23;20446;-91
2023/07/28 07:50:26;;;;;;;4.97;3.42;;;;;;;19.15;100.00;99312.91;6072077;23;20052;-91
2023/07/28 07:52:53;;;;;;;4.03;3.60;;;;;;;19.16;100.00;99305.66;6073023;23;20334;-91
2023/07/28 07:55:20;;;;;;;5.35;4.30;;;;;;;19.20;100.00;99304.22;6048174;23;20434;-91
2023/07/28 07:57:48;;;;;;;5.30;3.63;;;;;;;19.23;100.00;99317.25;6094610;23;20521;-91
2023/07/28 08:00:15;;;;;;;4.25;3.85;;;;;;;19.24;100.00;99306.31;6046858;23;20036;-90
2023/07/28 08:02:42;;;;;;;5.05;3.53;;;;;;;19.25;100.00;99312.50;6095850;23;20041;-90
2023/07/28 08:05:12;;;;;;;4.85;3.45;;;;;;;19.29;100.00;99313.78;6120168;23;20101;-90
2023/07/28 08:07:40;;;;;;;3.85;3.45;;;;;;;19.33;100.00;99316.88;6094770;23;20028;-90
2023/07/28 08:10:07;;;;;;;3.92;3.40;;;;;;;19.34;100.00;99322.06;6071399;23;20449;-90
2023/07/28 08:12:34;;;;;;;3.78;3.35;;;;;;;19.38;100.00;99319.78;6095178;23;20017;-91
2023/07/28 08:15:01;;;;;;;3.83;3.45;;;;;;;19.40;100.00;99318.53;6119149;23;20484;-89
2023/07/28 08:17:28;;;;;;;4.20;3.47;;;;;;;19.43;100.00;99325.38;6072403;23;20025;-89
2023/07/28 08:19:54;;;;;;;3.95;3.55;;;;;;;19.43;100.00;99317.28;6073269;23;20092;-93
2023/07/28 08:22:22;;;;;;;4.20;3.80;;;;;;;19.42;100.00;99319.16;6096344;23;20021;-94
2023/07/28 08:24:49;;;;;;;5.15;4.65;;;;;;;19.43;100.00;99328.06;6120571;23;20024;-92
2023/07/28 08:27:16;;;;;;;4.60;4.10;;;;;;;19.43;100.00;99326.19;6071754;23;20052;-93
2023/07/28 08:29:42;;;;;;;5.05;4.07;;;;;;;19.46;100.00;99324.94;6095799;23;20022;-92
2023/07/28 08:32:09;;;;;;;5.38;3.92;;;;;;;19.46;100.00;99333.88;6070888;23;20030;-92
2023/07/28 08:34:36;;;;;;;4.65;4.07;;;;;;;19.50;100.00;99337.81;6069365;23;20888;-90
2023/07/28 08:37:03;;;;;;;4.20;3.80;;;;;;;19.51;100.00;99336.78;6067506;23;20323;-92
2023/07/28 08:39:30;;;;;;;4.03;3.63;;;;;;;19.56;100.00;99332.63;6118927;23;20013;-89
2023/07/28 08:42:01;;;;;;;6.55;3.78;;;;;;;19.62;100.00;99340.72;6071645;23;20028;-88
2023/07/28 08:44:35;;;;;;;3.95;3.55;;;;;;;19.64;100.00;99341.34;6093835;23;20026;-90
2023/07/28 08:47:04;;;;;;;4.07;3.50;;;;;;;19.70;100.00;99339.72;6092883;23;20462;-89
2023/07/28 08:49:32;;;;;;;4.22;3.03;;;;;;;19.75;100.00;99350.69;6070419;23;20041;-89
2023/07/28 08:52:00;;;;;;;3.20;2.90;;;;;;;19.80;100.00;99348.22;6070944;23;20025;-89
2023/07/28 08:54:27;;;;;;;3.20;2.90;;;;;;;19.84;100.00;99349.44;6094598;23;20454;-90
2023/07/28 08:56:54;;;;;;;3.10;2.70;;;;;;;19.89;100.00;99352.34;6094220;23;20025;-90
2023/07/28 08:59:26;;;;;;;3.88;3.08;;;;;;;19.91;100.00;99355.66;6092798;23;20036;-90
2023/07/28 09:01:55;;;;;;;2.95;2.72;;;;;;;19.93;100.00;99356.28;6068108;23;20100;-90
2023/07/28 09:04:23;;;;;;;3.80;3.20;;;;;;;19.94;100.00;99359.81;6047417;23;20446;-90
2023/07/28 09:06:50;;;;;;;4.25;2.80;;;;;;;19.92;100.00;99364.56;6095505;23;20025;-93
2023/07/28 09:09:22;;;;;;;3.78;2.72;;;;;;;19.93;100.00;99375.16;6070045;23;20022;-89
2023/07/28 09:11:51;;;;;;;3.72;2.40;;;;;;;19.89;100.00;99371.19;6046306;23;20017;-91
2023/07/28 09:14:19;;;;;;;3.78;2.58;;;;;;;19.87;100.00;99370.59;6116464;23;20728;-90
2023/07/28 09:16:47;;;;;;;3.75;2.50;;;;;;;19.87;100.00;99370.59;6045673;23;20029;-87
2023/07/28 09:19:14;;;;;;;4.15;3.15;;;;;;;19.92;100.00;99369.97;6093885;23;20025;-89
2023/07/28 09:21:46;;;;;;;3.22;2.72;;;;;;;19.96;100.00;99360.44;6092385;23;20061;-90
2023/07/28 09:24:13;;;;;;;3.30;3.00;;;;;;;20.03;100.00;99363.13;6069603;23;20725;-91
2023/07/28 09:26:44;;;;;;;3.75;3.35;;;;;;;20.02;100.00;99356.88;6071637;23;20064;-88
2023/07/28 09:29:15;;;;;;;3.95;3.55;;;;;;;20.13;100.00;99364.34;6071351;23;20080;-88
2023/07/28 09:31:46;;;;;;;3.97;3.25;;;;;;;20.20;100.00;99363.50;6144918;23;20025;-89
2023/07/28 09:34:24;;;;;;;5.07;3.55;;;;;;;20.26;100.00;99365.38;6071665;23;20021;-90
2023/07/28 09:36:53;;;;;;;3.22;2.92;;;;;;;20.36;100.00;99350.41;6050350;23;20382;-92
2023/07/28 09:39:20;;;;;;;4.88;3.33;;;;;;;20.41;100.00;99349.78;6049782;23;20017;-90
2023/07/28 09:41:47;;;;;;;3.28;2.97;;;;;;;20.46;100.00;99352.69;6072952;23;20092;-89
2023/07/28 09:44:15;;;;;;;3.65;2.72;;;;;;;20.48;100.00;99358.69;6070444;23;20101;-88
2023/07/28 09:46:54;;;;;;;3.25;2.95;;;;;;;20.39;100.00;99359.97;6094018;23;20041;-88
2023/07/28 09:49:39;;;;;;;4.05;3.10;;;;;;;20.43;100.00;99363.03;6071510;23;20109;-88
2023/07/28 09:52:09;;;;;;;3.45;2.92;;;;;;;20.48;100.00;99360.53;6072830;23;20410;-93
2023/07/28 09:54:40;;;;;;;4.18;3.08;;;;;;;20.49;100.00;99352.25;6049543;23;20434;-90
2023/07/28 09:57:13;;;;;;;4.25;3.00;;;;;;;20.54;100.00;99344.38;6119092;23;20025;-88
2023/07/28 09:59:40;;;;;;;2.75;2.17;;;;;;;20.60;100.00;99358.88;6093348;23;20036;-89
2023/07/28 10:02:08;;;;;;;2.90;2.70;;;;;;;20.65;100.00;99350.16;6094518;23;20028;-89
2023/07/28 10:04:35;;;;;;;2.88;2.15;;;;;;;20.65;100.00;99348.28;6093984;23;20465;-90
2023/07/28 10:07:04;;;;;;;2.70;2.45;;;;;;;20.70;100.00;99353.88;6071985;23;20021;-91
2023/07/28 10:09:33;;;;;;;5.90;2.70;;;;;;;20.72;100.00;99364.47;6095587;23;20021;-90
2023/07/28 10:12:01;;;;;;;3.05;2.75;;;;;;;20.69;100.00;99363.00;6071369;23;20025;-88
2023/07/28 10:14:37;;;;;;;3.53;3.22;;;;;;;20.69;100.00;99363.00;6117078;23;20397;-89
2023/07/28 10:17:05;;;;;;;4.32;2.55;;;;;;;20.68;100.00;99363.22;6094782;23;20040;-89
2023/07/28 10:19:36;;;;;;;3.08;2.55;;;;;;;20.70;100.00;99370.06;6095955;23;20033;-90
2023/07/28 10:22:10;;;;;;;2.72;2.30;;;;;;;20.72;100.00;99367.16;6071595;23;20147;-90
2023/07/28 10:24:56;;;;;;;2.00;1.77;;;;;;;20.71;100.00;99368.19;6093113;23;20032;-88
2023/07/28 10:27:31;;;;;;;2.50;2.28;;;;;;;20.83;100.00;99361.09;6071157;23;20013;-90
2023/07/28 10:29:59;;;;;;;3.03;2.33;;;;;;;20.90;100.00;99367.28;6047508;23;20476;-91
2023/07/28 10:32:30;;;;;;;4.63;2.80;;;;;;;20.93;100.00;99368.72;6118040;23;20092;-92
2023/07/28 10:35:01;;;;;;;2.55;2.35;;;;;;;20.98;100.00;99369.72;6047205;23;20037;-89
2023/07/28 10:37:28;;;;;;;2.47;1.90;;;;;;;20.96;100.00;99355.66;6120259;23;20092;-90
2023/07/28 10:40:26;;;;;;;2.17;1.98;;;;;;;20.90;99.11;99379.97;6095059;23;20048;-87
2023/07/28 10:42:53;;;;;;;4.30;2.47;;;;;;;20.95;100.00;99383.66;6094302;23;20518;-88
2023/07/28 10:45:22;;;;;;;3.92;2.22;;;;;;;20.97;100.00;99373.50;6071466;23;20095;-85
2023/07/28 10:47:50;;;;;;;2.85;2.30;;;;;;;20.96;99.32;99371.00;6070606;23;20339;-87
2023/07/28 10:50:16;;;;;;;2.78;2.00;;;;;;;20.97;99.28;99380.75;6094444;23;20053;-86
2023/07/28 10:52:45;;;;;;;2.75;2.00;;;;;;;20.98;99.35;99375.13;6093164;23;20025;-87
2023/07/28 10:55:22;;;;;;;2.90;2.00;;;;;;;20.99;99.71;99374.09;6095085;23;20044;-87
2023/07/28 10:57:51;;;;;;;2.47;2.28;;;;;;;20.99;99.21;99370.59;6094810;23;20013;-87
2023/07/28 11:00:19;;;;;;;2.45;2.25;;;;;;;21.00;100.00;99391.13;6094191;23;20022;-87
2023/07/28 11:02:51;;;;;;;2.50;2.20;;;;;;;20.98;99.42;99388.63;6118238;23;20092;-89
2023/07/28 11:05:26;;;;;;;5.57;3.05;;;;;;;20.98;99.36;99375.13;6094301;23;20397;-87
2023/07/28 11:07:58;;;;;;;2.72;2.42;;;;;;;21.04;99.39;99368.06;6119687;23;20092;-88
2023/07/28 11:10:28;;;;;;;2.63;2.08;;;;;;;21.07;100.00;99366.81;6070358;23;20051;-87
2023/07/28 11:13:01;;;;;;;5.40;2.30;;;;;;;21.08;99.96;99371.97;6094118;23;20033;-88
2023/07/28 11:15:41;;;;;;;2.30;2.00;;;;;;;21.14;99.88;99378.38;6099321;23;20018;-87
2023/07/28 11:18:09;;;;;;;2.50;2.30;;;;;;;21.25;99.98;99365.03;6067643;23;20320;-86
2023/07/28 11:20:36;;;;;;;2.80;2.20;;;;;;;21.29;99.25;99370.00;6094581;23;20112;-87
2023/07/28 11:23:04;;;;;;;6.47;1.98;;;;;;;21.35;99.07;99375.38;6070054;23;20086;-90
2023/07/28 11:25:32;;;;;;;3.72;2.35;;;;;;;21.38;97.79;99377.66;6094114;23;20025;-88
2023/07/28 11:28:05;;;;;;;4.05;2.35;;;;;;;21.35;96.54;99385.34;6093459;23;20092;-87
2023/07/28 11:30:37;;;;;;;2.55;2.22;;;;;;;21.31;96.36;99382.22;6093851;23;20100;-86
2023/07/28 11:33:04;;;;;;;3.10;2.20;;;;;;;21.28;96.80;99377.28;6118838;23;20339;-87
2023/07/28 11:35:31;;;;;;;4.18;1.85;;;;;;;21.24;96.77;99374.19;6093133;23;20116;-87